Airfield :
LOGIN :

Register | Disclaimer

   EN    FR    IT 

 










Legend :    VFR   Marginal VFR   IFR   Intensive IFR   Very Intensive IFR
Visi :
Ceiling :
>= 8 km
>= 3000ft
5 to 8 km
1000 to 3000 ft
1500m to 5 km
500 to 1000 ft
800 to 1500m
200 to 500 ft
< 800m
< 200 ft
Symbols :   Thunderstorms  Fog  Heavy snow  Heavy precipitations  Wind > 20 kt
SIGMETs :     Misc.  Thunderstorms  Icing  Turbulence  Mountain Waves  Volcanic Ashes







- Airport Elevation : 122 ft
- IATA code : TXL


EDDT - Berlin Tegel Int.

CURRENT METAR :
  • 231520Z 27020KT 3500 -RADZ FEW005 BKN007 11/10 Q1007 TEMPO 27020G35KT 6000 BKN013

EXPIRED METARs :
  • 231450Z 27020KT 5000 -RADZ FEW005 BKN007 11/10 Q1007 TEMPO 26020G35KT BKN013
  • 231420Z 27017KT 3800 -RADZ FEW006 BKN008 11/10 Q1008 TEMPO 27020G35KT 6000 BKN013
  • 231350Z 27017KT 3500 -RADZ FEW006 BKN009 10/10 Q1008 TEMPO 27020G30KT 6000 BKN013
  • 231320Z 26022G35KT 4500 -RADZ FEW008 BKN011 10/09 Q1008 TEMPO 6000
  • 231250Z 26017KT 4800 -RADZ FEW006 BKN008 10/09 Q1009 TEMPO 26020G30KT 6000

TAF TAF EDDT
Valid from the 23 at 12:00 until the 24 at 12:00 UTC


231100Z 2312/2412 27015G25KT 9999 BKN015
TEMPO 2312/2322 27020G35KT BKN012
PROB40
TEMPO 2312/2318 4000 -RADZ BKN008
No reported NOTAMs for that airfield.



MET'MAP, your aeronautical weather chart ! - Copyright ORBIFLY December 2007 - Disclaimer

ORBIFLY MET'MAP TEAM :

Programming & Development : Alexandra Zaïnal
Concept & Development : Baudouin d'Aumeries
Co-Development & Prog : Marc-Olivier Méhu
Technical & hardware support : Manuel Goepfert

Contact : metmap@orbifly.com




SOURCES & CREDITS :

   NOAA